createdAt,value
2022-09-24T00:01:26.021Z,33.38
2022-09-24T00:03:56.351Z,27.27
2022-09-24T00:06:24.038Z,28.60
2022-09-24T00:08:54.279Z,29.58
2022-09-24T00:11:23.136Z,25.73
2022-09-24T00:13:51.452Z,27.17
2022-09-24T00:16:20.995Z,28.75
2022-09-24T00:18:47.884Z,21.55
2022-09-24T00:21:21.832Z,26.67
2022-09-24T00:23:56.618Z,26.13
2022-09-24T00:29:10.134Z,27.77
2022-09-24T00:31:36.805Z,26.42
2022-09-24T00:34:04.219Z,25.73
2022-09-24T00:36:31.081Z,27.20
2022-09-24T00:38:59.552Z,25.77
2022-09-24T00:41:29.372Z,25.17
2022-09-24T00:43:56.423Z,27.38
2022-09-24T00:46:28.965Z,25.10
2022-09-24T00:49:20.780Z,24.73
2022-09-24T00:51:50.124Z,25.15
2022-09-24T00:54:24.125Z,27.67
2022-09-24T00:56:52.333Z,24.63
2022-09-24T00:59:23.014Z,27.42
2022-09-24T01:01:51.679Z,23.20
2022-09-24T01:04:22.732Z,25.65
2022-09-24T01:06:50.483Z,25.02
2022-09-24T01:09:19.729Z,22.52
2022-09-24T01:12:00.419Z,21.23
2022-09-24T01:14:46.526Z,22.92
2022-09-24T01:17:26.392Z,25.15
2022-09-24T01:20:17.287Z,24.85
2022-09-24T01:22:56.073Z,25.02
2022-09-24T01:26:00.076Z,22.33
2022-09-24T01:28:41.498Z,25.13
2022-09-24T01:31:17.086Z,26.13
2022-09-24T01:33:48.445Z,24.88
2022-09-24T01:36:16.867Z,27.90
2022-09-24T01:38:47.221Z,22.33
2022-09-24T01:41:16.343Z,21.45
2022-09-24T01:43:43.839Z,23.02
2022-09-24T01:46:13.604Z,25.17
2022-09-24T01:48:41.097Z,23.83
2022-09-24T01:51:16.311Z,23.42
2022-09-24T01:54:04.172Z,24.08
2022-09-24T01:56:40.252Z,24.23
2022-09-24T01:59:32.706Z,21.63
2022-09-24T02:02:07.252Z,26.75
2022-09-24T02:04:39.509Z,27.55
2022-09-24T02:07:24.796Z,25.58
2022-09-24T02:09:51.544Z,25.02
2022-09-24T02:12:29.603Z,27.23
2022-09-24T02:15:17.408Z,26.77
2022-09-24T02:17:46.516Z,27.63
2022-09-24T02:20:16.629Z,27.75
2022-09-24T02:22:45.656Z,28.88
2022-09-24T02:25:18.278Z,23.67
2022-09-24T02:27:44.889Z,26.67
2022-09-24T02:30:11.852Z,32.20
2022-09-24T02:32:41.051Z,28.77
2022-09-24T02:35:11.405Z,32.20
2022-09-24T02:37:40.716Z,32.53
2022-09-24T02:40:09.665Z,32.80
2022-09-24T02:42:37.774Z,30.17
2022-09-24T02:45:05.443Z,33.88
2022-09-24T02:47:32.364Z,32.25
2022-09-24T02:49:59.193Z,37.00
2022-09-24T02:52:26.063Z,36.83
2022-09-24T02:54:52.765Z,22.40
2022-09-24T02:57:20.366Z,40.30
2022-09-24T02:59:47.179Z,42.05
2022-09-24T03:02:15.416Z,43.03
2022-09-24T03:04:42.869Z,41.60
2022-09-24T03:07:10.222Z,41.67
2022-09-24T03:09:36.881Z,40.80
2022-09-24T03:12:03.897Z,46.08
2022-09-24T03:14:30.535Z,43.67
2022-09-24T03:16:57.425Z,42.00
2022-09-24T03:19:24.008Z,41.55
2022-09-24T03:21:50.792Z,39.85
2022-09-24T03:24:17.379Z,38.58
2022-09-24T03:26:43.939Z,43.30
2022-09-24T03:29:10.761Z,41.88
2022-09-24T03:31:37.442Z,43.30
2022-09-24T03:34:04.084Z,45.22
2022-09-24T03:36:30.737Z,39.05
2022-09-24T03:38:57.958Z,42.15
2022-09-24T03:41:27.327Z,42.22
2022-09-24T03:43:54.541Z,41.35
2022-09-24T03:46:21.182Z,39.63
2022-09-24T03:48:48.103Z,37.63
2022-09-24T03:51:18.609Z,40.45
2022-09-24T03:53:46.020Z,35.45
2022-09-24T03:56:12.770Z,36.80
2022-09-24T03:58:40.409Z,34.22
2022-09-24T04:01:12.076Z,38.03
2022-09-24T04:03:38.820Z,37.47
2022-09-24T04:06:06.311Z,37.78
2022-09-24T04:08:33.505Z,40.40
2022-09-24T04:11:00.543Z,38.47
2022-09-24T04:13:27.357Z,39.00
2022-09-24T04:15:54.944Z,35.55
2022-09-24T04:18:22.279Z,34.63
2022-09-24T04:20:49.058Z,35.75
2022-09-24T04:23:15.904Z,36.92
2022-09-24T04:25:42.646Z,36.05
2022-09-24T04:28:10.022Z,35.75
2022-09-24T04:30:38.235Z,34.05
2022-09-24T04:33:05.426Z,36.45
2022-09-24T04:35:35.835Z,38.15
2022-09-24T04:38:03.935Z,39.85
2022-09-24T04:40:31.161Z,36.60
2022-09-24T04:42:57.991Z,40.15
2022-09-24T04:45:24.953Z,37.42
2022-09-24T04:47:53.529Z,41.97
2022-09-24T04:50:20.746Z,35.45
2022-09-24T04:52:47.603Z,35.25
2022-09-24T04:55:14.763Z,34.65
2022-09-24T04:57:41.551Z,36.63
2022-09-24T05:00:14.656Z,39.85
2022-09-24T05:02:42.543Z,35.50
2022-09-24T05:05:10.041Z,36.22
2022-09-24T05:07:37.137Z,34.28
2022-09-24T05:10:06.517Z,30.25
2022-09-24T05:12:35.185Z,36.22
2022-09-24T05:15:03.546Z,31.83
2022-09-24T05:17:30.305Z,31.45
2022-09-24T05:19:57.956Z,34.35
2022-09-24T05:22:26.956Z,33.95
2022-09-24T05:24:54.205Z,31.67
2022-09-24T05:27:21.768Z,31.55
2022-09-24T05:29:48.645Z,30.17
2022-09-24T05:32:17.893Z,34.13
2022-09-24T05:34:45.595Z,33.00
2022-09-24T05:37:13.915Z,34.00
2022-09-24T05:39:40.645Z,30.48
2022-09-24T05:42:11.193Z,34.08
2022-09-24T05:44:38.016Z,25.02
2022-09-24T05:47:04.652Z,36.72
2022-09-24T05:49:32.014Z,34.42
2022-09-24T05:51:58.893Z,35.25
2022-09-24T05:54:25.570Z,33.83
2022-09-24T05:56:52.161Z,39.30
2022-09-24T05:59:18.832Z,38.05
2022-09-24T06:01:45.462Z,39.38
2022-09-24T06:04:12.818Z,40.05
2022-09-24T06:06:39.498Z,39.95
2022-09-24T06:09:06.134Z,38.97
2022-09-24T06:11:39.944Z,39.83
2022-09-24T06:14:08.493Z,46.00
2022-09-24T06:16:35.433Z,40.33
2022-09-24T06:19:02.263Z,41.22
2022-09-24T06:21:28.966Z,40.88
2022-09-24T06:23:55.694Z,38.17
2022-09-24T06:26:22.960Z,37.33
2022-09-24T06:28:49.827Z,37.30
2022-09-24T06:31:16.711Z,37.05
2022-09-24T06:33:43.597Z,34.85
2022-09-24T06:36:10.536Z,38.22
2022-09-24T06:38:39.479Z,36.00
2022-09-24T06:41:06.933Z,35.53
2022-09-24T06:43:34.839Z,37.42
2022-09-24T06:46:02.108Z,36.75
2022-09-24T06:48:29.434Z,38.67
2022-09-24T06:50:56.686Z,40.03
2022-09-24T06:53:24.104Z,34.17
2022-09-24T06:55:50.900Z,32.75
2022-09-24T06:58:20.877Z,37.15
2022-09-24T07:00:53.278Z,36.28
2022-09-24T07:03:21.422Z,34.55
2022-09-24T07:05:48.427Z,38.42
2022-09-24T07:08:15.301Z,41.58
2022-09-24T07:10:46.644Z,39.72
2022-09-24T07:13:14.169Z,40.35
2022-09-24T07:15:41.849Z,45.17
2022-09-24T07:18:09.265Z,37.90
2022-09-24T07:20:37.017Z,38.08
2022-09-24T07:23:08.757Z,43.97
2022-09-24T07:25:36.889Z,46.03
2022-09-24T07:28:04.668Z,40.30
2022-09-24T07:30:33.660Z,44.83
2022-09-24T07:33:00.827Z,37.50
2022-09-24T07:35:28.795Z,42.30
2022-09-24T07:37:58.692Z,44.30
2022-09-24T07:40:26.921Z,42.90
2022-09-24T07:42:55.214Z,43.67
2022-09-24T07:45:23.789Z,41.63
2022-09-24T07:48:05.678Z,34.95
2022-09-24T07:50:34.629Z,44.58
2022-09-24T07:53:01.380Z,42.90
2022-09-24T07:55:28.142Z,33.72
2022-09-24T07:57:56.008Z,32.50
2022-09-24T08:00:24.806Z,37.55
2022-09-24T08:02:53.734Z,34.10
2022-09-24T08:05:20.686Z,32.10
2022-09-24T08:07:55.407Z,32.70
2022-09-24T08:12:49.612Z,40.92
2022-09-24T08:15:16.427Z,41.90
2022-09-24T08:17:43.464Z,42.83
2022-09-24T08:20:11.940Z,41.08
2022-09-24T08:22:38.838Z,40.42
2022-09-24T08:25:06.138Z,47.05
2022-09-24T08:27:33.081Z,41.03
2022-09-24T08:30:00.734Z,39.10
2022-09-24T08:32:29.455Z,34.42
2022-09-24T08:34:56.296Z,39.05
2022-09-24T08:37:23.291Z,39.53
2022-09-24T08:39:50.026Z,38.22
2022-09-24T08:42:49.342Z,32.78
2022-09-24T08:45:36.336Z,36.50
2022-09-24T08:48:19.330Z,33.05
2022-09-24T08:50:58.207Z,26.98
2022-09-24T08:53:46.717Z,35.78
2022-09-24T08:56:26.824Z,31.08
2022-09-24T08:58:57.933Z,31.35
2022-09-24T09:01:49.861Z,29.05
2022-09-24T09:04:41.489Z,24.83
2022-09-24T09:07:23.303Z,31.67
2022-09-24T09:09:54.348Z,25.25
2022-09-24T09:12:47.617Z,23.30
2022-09-24T09:15:27.367Z,26.88
2022-09-24T09:18:18.212Z,27.70
2022-09-24T09:20:46.857Z,25.15
2022-09-24T09:23:18.606Z,21.27
2022-09-24T09:26:06.884Z,16.52
2022-09-24T09:28:34.213Z,18.33
2022-09-24T09:31:40.015Z,15.23
2022-09-24T09:37:07.190Z,19.48
2022-09-24T09:39:57.749Z,13.93
2022-09-24T09:42:36.215Z,8.18
2022-09-24T09:45:25.560Z,12.65
2022-09-24T09:47:57.396Z,15.13
2022-09-24T09:50:28.596Z,11.18
2022-09-24T09:52:55.833Z,8.07
2022-09-24T09:55:35.561Z,9.65
2022-09-24T09:58:18.258Z,12.75
2022-09-24T10:00:49.679Z,10.77
2022-09-24T10:03:34.415Z,14.68
2022-09-24T10:06:05.760Z,7.22
2022-09-24T10:08:32.949Z,5.85
2022-09-24T10:11:01.270Z,7.95
2022-09-24T10:13:28.230Z,4.72
2022-09-24T10:16:01.961Z,8.50
2022-09-24T10:18:48.272Z,7.95
2022-09-24T10:21:36.976Z,7.43
2022-09-24T10:24:09.050Z,5.25
2022-09-24T10:26:44.712Z,4.45
2022-09-24T10:29:38.251Z,6.28
2022-09-24T10:32:06.371Z,6.28
2022-09-24T10:34:33.402Z,2.38
2022-09-24T10:37:11.764Z,4.10
2022-09-24T10:39:38.649Z,6.95
2022-09-24T10:42:08.039Z,9.32
2022-09-24T10:44:36.994Z,11.07
2022-09-24T10:47:09.704Z,10.13
2022-09-24T10:49:45.493Z,9.52
2022-09-24T10:52:25.512Z,3.88
2022-09-24T10:55:07.308Z,6.60
2022-09-24T10:57:49.536Z,8.23
2022-09-24T11:00:20.294Z,6.47
2022-09-24T11:02:55.975Z,5.68
2022-09-24T11:05:24.784Z,5.60
2022-09-24T11:07:52.914Z,6.38
2022-09-24T11:10:51.717Z,9.27
2022-09-24T11:13:40.566Z,7.05
2022-09-24T11:16:19.224Z,12.95
2022-09-24T11:18:51.523Z,7.95
2022-09-24T11:21:57.659Z,6.20
2022-09-24T11:24:56.967Z,6.95
2022-09-24T11:27:39.624Z,11.38
2022-09-24T11:30:21.620Z,6.07
2022-09-24T11:33:01.662Z,7.20
2022-09-24T11:35:47.155Z,4.85
2022-09-24T11:38:21.463Z,6.50
2022-09-24T11:41:02.327Z,9.23
2022-09-24T11:43:56.526Z,8.85
2022-09-24T11:46:48.430Z,6.72
2022-09-24T11:49:33.753Z,9.88
2022-09-24T11:52:14.461Z,8.27
2022-09-24T11:54:59.354Z,4.45
2022-09-24T11:57:30.545Z,6.00
2022-09-24T12:00:14.314Z,7.82
2022-09-24T12:02:51.090Z,6.00
2022-09-24T12:05:30.089Z,8.25
2022-09-24T12:08:18.580Z,5.90
2022-09-24T12:11:12.040Z,4.78
2022-09-24T12:13:52.304Z,11.32
2022-09-24T12:16:26.280Z,9.07
2022-09-24T12:19:11.617Z,13.35
2022-09-24T12:21:41.479Z,13.43
2022-09-24T12:24:32.839Z,10.43
2022-09-24T12:27:02.477Z,5.63
2022-09-24T12:30:10.200Z,9.48
2022-09-24T12:32:56.224Z,10.73
2022-09-24T12:35:28.874Z,17.05
2022-09-24T12:38:05.210Z,12.50
2022-09-24T12:40:46.165Z,10.20
2022-09-24T12:43:29.495Z,12.88
2022-09-24T12:46:01.866Z,11.93
2022-09-24T12:48:31.761Z,15.70
2022-09-24T12:51:01.333Z,13.10
2022-09-24T12:53:34.709Z,11.20
2022-09-24T12:56:03.754Z,15.00
2022-09-24T12:58:38.934Z,12.50
2022-09-24T13:01:32.502Z,15.68
2022-09-24T13:04:14.620Z,8.68
2022-09-24T13:06:48.120Z,13.82
2022-09-24T13:09:34.373Z,17.58
2022-09-24T13:12:31.437Z,11.32
2022-09-24T13:15:08.032Z,18.17
2022-09-24T13:17:36.033Z,10.88
2022-09-24T13:20:08.784Z,8.55
2022-09-24T13:22:36.830Z,16.52
2022-09-24T13:25:20.768Z,8.52
2022-09-24T13:28:16.562Z,16.08
2022-09-24T13:30:46.686Z,10.32
2022-09-24T13:33:26.141Z,6.63
2022-09-24T13:36:22.189Z,12.27
2022-09-24T13:39:10.233Z,5.97
2022-09-24T13:42:01.717Z,7.75
2022-09-24T13:44:39.248Z,11.95
2022-09-24T13:47:20.029Z,10.48
2022-09-24T13:49:48.439Z,20.13
2022-09-24T13:52:29.870Z,16.05
2022-09-24T13:55:02.128Z,10.68
2022-09-24T13:57:29.777Z,14.77
2022-09-24T14:00:27.653Z,7.47
2022-09-24T14:03:03.015Z,8.70
2022-09-24T14:05:36.152Z,12.32
2022-09-24T14:08:09.698Z,8.48
2022-09-24T14:10:36.986Z,9.45
2022-09-24T14:13:17.517Z,11.98
2022-09-24T14:15:59.044Z,10.38
2022-09-24T14:18:27.600Z,6.35
2022-09-24T14:21:04.279Z,16.63
2022-09-24T14:23:37.330Z,7.70
2022-09-24T14:26:05.052Z,11.48
2022-09-24T14:28:33.408Z,9.45
2022-09-24T14:31:01.527Z,11.07
2022-09-24T14:33:33.794Z,13.80
2022-09-24T14:36:02.276Z,9.25
2022-09-24T14:38:34.355Z,8.80
2022-09-24T14:41:16.716Z,7.00
2022-09-24T14:43:49.889Z,12.07
2022-09-24T14:46:24.518Z,11.02
2022-09-24T14:48:52.335Z,5.80
2022-09-24T14:51:29.801Z,10.98
2022-09-24T14:54:19.609Z,17.25
2022-09-24T14:56:46.410Z,12.45
2022-09-24T14:59:14.793Z,17.73
2022-09-24T15:01:41.631Z,7.35
2022-09-24T15:04:19.165Z,15.05
2022-09-24T15:06:47.579Z,7.38
2022-09-24T15:09:27.930Z,9.68
2022-09-24T15:11:57.845Z,10.43
2022-09-24T15:14:32.909Z,10.93
2022-09-24T15:17:22.956Z,11.93
2022-09-24T15:19:54.338Z,9.00
2022-09-24T15:22:27.777Z,9.55
2022-09-24T15:25:01.024Z,13.43
2022-09-24T15:27:39.467Z,5.53
2022-09-24T15:30:10.872Z,16.25
2022-09-24T15:32:37.678Z,12.55
2022-09-24T15:35:09.594Z,9.15
2022-09-24T15:37:40.070Z,6.75
2022-09-24T15:40:20.780Z,9.68
2022-09-24T15:42:47.569Z,5.82
2022-09-24T15:45:21.225Z,7.50
2022-09-24T15:47:48.982Z,7.00
2022-09-24T15:50:15.928Z,11.60
2022-09-24T15:53:02.176Z,7.75
2022-09-24T15:55:29.853Z,8.35
2022-09-24T15:57:56.770Z,9.65
2022-09-24T16:00:25.163Z,9.60
2022-09-24T16:02:55.418Z,13.25
2022-09-24T16:05:23.533Z,8.73
2022-09-24T16:07:50.287Z,12.30
2022-09-24T16:10:17.275Z,7.05
2022-09-24T16:12:44.097Z,8.35
2022-09-24T16:15:14.298Z,8.40
2022-09-24T16:17:41.991Z,8.50
2022-09-24T16:20:10.046Z,13.65
2022-09-24T16:22:36.978Z,6.13
2022-09-24T16:25:07.312Z,5.90
2022-09-24T16:27:35.348Z,10.10
2022-09-24T16:30:02.827Z,5.45
2022-09-24T16:32:29.583Z,6.78
2022-09-24T16:34:56.941Z,12.23
2022-09-24T16:37:24.206Z,5.78
2022-09-24T16:39:51.273Z,11.23
2022-09-24T16:42:18.161Z,11.65
2022-09-24T16:44:44.865Z,15.50
2022-09-24T16:47:16.134Z,8.45
2022-09-24T16:49:43.191Z,19.05
2022-09-24T16:52:09.984Z,9.43
2022-09-24T16:54:36.792Z,8.75
2022-09-24T16:57:05.994Z,13.13
2022-09-24T16:59:33.268Z,9.63
2022-09-24T17:02:00.136Z,7.10
2022-09-24T17:04:27.608Z,8.50
2022-09-24T17:06:55.408Z,11.38
2022-09-24T17:09:40.621Z,5.97
2022-09-24T17:12:07.674Z,3.85
2022-09-24T17:14:37.112Z,8.23
2022-09-24T17:17:04.909Z,11.40
2022-09-24T17:19:31.751Z,13.65
2022-09-24T17:21:58.989Z,11.68
2022-09-24T17:24:25.828Z,5.15
2022-09-24T17:26:54.198Z,9.80
2022-09-24T17:29:22.359Z,9.63
2022-09-24T17:31:49.681Z,8.25
2022-09-24T17:34:16.394Z,6.72
2022-09-24T17:36:43.401Z,12.27
2022-09-24T17:39:12.838Z,7.10
2022-09-24T17:41:39.679Z,11.55
2022-09-24T17:44:06.777Z,8.50
2022-09-24T17:46:35.954Z,4.32
2022-09-24T17:49:02.973Z,7.05
2022-09-24T17:51:36.662Z,7.20
2022-09-24T17:54:09.492Z,4.55
2022-09-24T17:56:39.322Z,5.43
2022-09-24T17:59:11.680Z,5.75
2022-09-24T18:01:40.571Z,3.38
2022-09-24T18:04:12.844Z,9.38
2022-09-24T18:06:41.226Z,12.30
2022-09-24T18:09:09.714Z,6.57
2022-09-24T18:11:48.202Z,16.58
2022-09-24T18:14:17.710Z,7.15
2022-09-24T18:16:45.515Z,10.13
2022-09-24T18:19:15.045Z,6.85
2022-09-24T18:21:41.785Z,11.13
2022-09-24T18:24:10.191Z,9.18
2022-09-24T18:26:39.257Z,8.68
2022-09-24T18:29:16.745Z,11.20
2022-09-24T18:31:44.686Z,9.55
2022-09-24T18:34:15.775Z,5.68
2022-09-24T18:36:43.628Z,5.53
2022-09-24T18:39:13.509Z,14.02
2022-09-24T18:41:41.474Z,13.52
2022-09-24T18:44:09.007Z,7.95
2022-09-24T18:46:35.746Z,10.27
2022-09-24T18:49:02.867Z,9.88
2022-09-24T18:51:32.586Z,4.80
2022-09-24T18:54:02.879Z,5.53
2022-09-24T18:56:30.011Z,5.88
2022-09-24T18:59:05.898Z,6.70
2022-09-24T19:01:35.652Z,15.73
2022-09-24T19:04:02.813Z,5.32
2022-09-24T19:06:30.568Z,8.13
2022-09-24T19:08:57.180Z,7.57
2022-09-24T19:11:23.953Z,6.78
2022-09-24T19:13:52.855Z,5.97
2022-09-24T19:16:25.692Z,5.47
2022-09-24T19:18:53.867Z,6.72
2022-09-24T19:21:22.909Z,7.20
2022-09-24T19:23:52.048Z,9.13
2022-09-24T19:26:22.209Z,5.10
2022-09-24T19:28:53.178Z,11.95
2022-09-24T19:31:26.872Z,8.90
2022-09-24T19:33:54.448Z,8.52
2022-09-24T19:36:22.155Z,6.22
2022-09-24T19:38:49.084Z,6.93
2022-09-24T19:41:24.806Z,6.43
2022-09-24T19:43:53.346Z,13.63
2022-09-24T19:46:24.014Z,12.07
2022-09-24T19:48:51.223Z,7.10
2022-09-24T19:51:20.833Z,6.80
2022-09-24T19:53:49.667Z,8.52
2022-09-24T19:56:16.920Z,8.57
2022-09-24T19:58:47.102Z,5.57
2022-09-24T20:01:17.331Z,9.05
2022-09-24T20:03:44.506Z,9.43
2022-09-24T20:06:19.807Z,6.78
2022-09-24T20:08:46.976Z,10.48
2022-09-24T20:11:20.249Z,9.38
2022-09-24T20:13:48.295Z,6.80
2022-09-24T20:16:19.430Z,7.45
2022-09-24T20:18:51.455Z,10.55
2022-09-24T20:21:19.636Z,7.00
2022-09-24T20:23:48.197Z,5.10
2022-09-24T20:26:36.022Z,12.38
2022-09-24T20:29:03.303Z,9.43
2022-09-24T20:31:30.508Z,9.20
2022-09-24T20:33:57.354Z,7.47
2022-09-24T20:36:25.320Z,5.15
2022-09-24T20:38:52.722Z,11.20
2022-09-24T20:41:24.539Z,4.68
2022-09-24T20:43:52.221Z,8.43
2022-09-24T20:46:24.473Z,7.68
2022-09-24T20:49:01.158Z,15.70
2022-09-24T20:51:31.700Z,7.30
2022-09-24T20:53:59.841Z,8.60
2022-09-24T20:56:27.041Z,8.52
2022-09-24T20:58:54.023Z,11.48
2022-09-24T21:01:21.860Z,6.35
2022-09-24T21:03:49.982Z,7.93
2022-09-24T21:06:17.889Z,5.45
2022-09-24T21:08:45.929Z,8.52
2022-09-24T21:11:21.293Z,4.68
2022-09-24T21:13:53.049Z,10.75
2022-09-24T21:16:22.805Z,11.05
2022-09-24T21:18:52.158Z,6.90
2022-09-24T21:21:21.949Z,7.53
2022-09-24T21:23:53.204Z,6.47
2022-09-24T21:26:22.169Z,3.53
2022-09-24T21:28:53.819Z,5.47
2022-09-24T21:31:23.278Z,6.82
2022-09-24T21:33:54.487Z,9.07
2022-09-24T21:36:29.140Z,8.20
2022-09-24T21:39:01.297Z,8.23
2022-09-24T21:41:31.112Z,6.82
2022-09-24T21:43:58.601Z,13.65
2022-09-24T21:46:27.022Z,12.02
2022-09-24T21:48:55.523Z,3.33
2022-09-24T21:51:22.682Z,9.73
2022-09-24T21:53:53.908Z,4.88
2022-09-24T21:56:21.436Z,13.00
2022-09-24T21:58:49.654Z,5.97
2022-09-24T22:01:25.518Z,8.75
2022-09-24T22:03:55.455Z,9.13
2022-09-24T22:06:23.484Z,8.73
2022-09-24T22:08:50.248Z,8.77
2022-09-24T22:11:17.777Z,7.13
2022-09-24T22:13:44.967Z,6.47
2022-09-24T22:16:12.135Z,6.53
2022-09-24T22:18:38.960Z,9.15
2022-09-24T22:21:08.483Z,12.68
2022-09-24T22:23:35.832Z,12.90
2022-09-24T22:26:03.386Z,9.82
2022-09-24T22:28:30.452Z,10.32
2022-09-24T22:30:59.296Z,9.95
2022-09-24T22:33:47.573Z,8.98
2022-09-24T22:36:14.222Z,11.50
2022-09-24T22:38:41.011Z,7.78
2022-09-24T22:41:10.628Z,9.45
2022-09-24T22:43:38.077Z,7.30
2022-09-24T22:46:07.498Z,15.55
2022-09-24T22:48:35.181Z,12.57
2022-09-24T22:51:02.781Z,13.45
2022-09-24T22:53:29.413Z,7.80
2022-09-24T22:56:06.407Z,9.27
2022-09-24T22:58:34.050Z,5.65
2022-09-24T23:01:16.090Z,7.13
2022-09-24T23:03:44.050Z,9.88
2022-09-24T23:06:11.851Z,9.52
2022-09-24T23:08:41.078Z,11.43
2022-09-24T23:11:16.626Z,9.38
2022-09-24T23:13:45.227Z,9.93
2022-09-24T23:16:17.481Z,11.90
2022-09-24T23:18:47.786Z,6.75
2022-09-24T23:21:19.681Z,9.88
2022-09-24T23:23:47.049Z,9.43
2022-09-24T23:26:18.569Z,9.32
2022-09-24T23:28:53.335Z,14.15
2022-09-24T23:33:50.169Z,9.55
2022-09-24T23:36:17.651Z,15.35
2022-09-24T23:38:44.783Z,14.52
2022-09-24T23:41:13.067Z,4.55
2022-09-24T23:43:41.078Z,12.63
2022-09-24T23:46:08.857Z,9.52
2022-09-24T23:48:35.555Z,6.10
2022-09-24T23:51:03.276Z,5.95
2022-09-24T23:53:30.861Z,10.90
2022-09-24T23:55:57.440Z,11.07
2022-09-24T23:58:24.961Z,10.00
